Time;durP1;ratioP1;P1;durP2;ratioP2;P2;SDS_P1;SDS_P2;PMS_P1;PMS_P2;Temp;Humidity;BMP_temperature;BMP_pressure;BME280_temperature;BME280_humidity;BME280_pressure;Samples;Min_cycle;Max_cycle;Signal;HPM_P1;HPM_P2
2024/01/06 00:00:58;;;;;;;12.98;9.40;;;1.70;99.90;;;;;;5052748;28;20048;-75
2024/01/06 00:03:25;;;;;;;15.48;10.00;;;1.70;99.90;;;;;;5055201;28;20052;-74
2024/01/06 00:05:52;;;;;;;15.80;11.18;;;1.70;99.90;;;;;;5055114;28;20056;-74
2024/01/06 00:08:18;;;;;;;15.57;10.02;;;1.70;99.90;;;;;;5053061;28;20041;-75
2024/01/06 00:10:45;;;;;;;13.68;9.95;;;1.70;99.90;;;;;;5052121;28;20044;-76
2024/01/06 00:13:12;;;;;;;14.07;10.35;;;2.00;99.90;;;;;;5053026;28;20091;-76
2024/01/06 00:15:39;;;;;;;17.80;10.50;;;2.00;99.90;;;;;;5053134;28;20484;-76
2024/01/06 00:18:07;;;;;;;13.27;9.10;;;1.60;99.90;;;;;;5054774;28;20446;-76
2024/01/06 00:20:34;;;;;;;12.90;9.40;;;1.70;99.90;;;;;;5053208;28;20538;-76
2024/01/06 00:23:01;;;;;;;13.25;10.02;;;1.80;99.90;;;;;;5053539;28;20053;-76
2024/01/06 00:25:28;;;;;;;15.27;10.57;;;1.70;99.90;;;;;;5052391;28;20102;-76
2024/01/06 00:27:55;;;;;;;11.65;8.90;;;1.70;99.90;;;;;;5053778;28;20102;-75
2024/01/06 00:30:22;;;;;;;13.25;9.30;;;1.70;99.90;;;;;;5051179;28;20048;-75
2024/01/06 00:32:48;;;;;;;13.85;10.35;;;1.60;99.90;;;;;;5050978;28;20053;-75
2024/01/06 00:35:17;;;;;;;13.23;9.18;;;1.60;99.90;;;;;;5052110;28;20049;-75
2024/01/06 00:37:43;;;;;;;12.70;8.52;;;1.60;99.90;;;;;;5051980;28;20446;-75
2024/01/06 00:40:11;;;;;;;13.98;9.13;;;1.60;99.90;;;;;;5054228;28;20048;-74
2024/01/06 00:42:38;;;;;;;14.38;9.68;;;1.60;99.90;;;;;;5051738;28;20056;-75
2024/01/06 00:45:08;;;;;;;12.13;9.30;;;2.00;99.90;;;;;;5053510;28;20044;-75
2024/01/06 00:47:34;;;;;;;15.68;10.57;;;1.70;99.90;;;;;;5035807;28;20452;-75
2024/01/06 00:50:01;;;;;;;13.60;9.82;;;1.70;99.90;;;;;;5053592;28;20079;-75
2024/01/06 00:52:30;;;;;;;13.13;9.60;;;1.70;99.90;;;;;;5052728;28;20048;-75
2024/01/06 00:54:56;;;;;;;14.90;10.27;;;1.60;99.90;;;;;;5051449;28;20114;-75
2024/01/06 00:57:24;;;;;;;12.43;8.82;;;1.60;99.90;;;;;;5051915;28;20049;-75
2024/01/06 00:59:51;;;;;;;15.27;9.27;;;1.60;99.90;;;;;;5052303;28;20048;-75
2024/01/06 01:02:18;;;;;;;17.13;10.68;;;1.50;99.90;;;;;;5051943;28;20053;-74
2024/01/06 01:04:45;;;;;;;12.43;8.93;;;1.50;99.90;;;;;;5046976;28;20436;-75
2024/01/06 01:07:12;;;;;;;12.48;9.52;;;1.50;99.90;;;;;;5051662;28;20049;-74
2024/01/06 01:09:41;;;;;;;13.30;9.27;;;1.50;99.90;;;;;;5054364;28;20384;-74
2024/01/06 01:12:08;;;;;;;13.05;9.65;;;1.50;99.90;;;;;;5050576;28;20045;-74
2024/01/06 01:14:34;;;;;;;12.77;9.50;;;1.50;99.90;;;;;;5051610;28;20451;-74
2024/01/06 01:17:01;;;;;;;13.30;9.23;;;1.50;99.90;;;;;;5071402;28;20062;-74
2024/01/06 01:19:28;;;;;;;13.63;9.18;;;1.50;99.90;;;;;;5052416;28;20044;-73
2024/01/06 01:21:55;;;;;;;12.45;9.40;;;1.60;99.90;;;;;;5053211;28;20055;-73
2024/01/06 01:24:22;;;;;;;11.82;8.63;;;1.50;99.90;;;;;;5052995;28;20044;-74
2024/01/06 01:26:51;;;;;;;12.60;9.30;;;1.50;99.90;;;;;;5052840;28;20531;-74
2024/01/06 01:29:20;;;;;;;15.02;9.73;;;1.50;99.90;;;;;;5053762;28;20098;-74
2024/01/06 01:31:46;;;;;;;12.60;8.55;;;1.70;99.90;;;;;;5053970;28;20171;-74
2024/01/06 01:34:13;;;;;;;15.88;8.75;;;1.50;99.90;;;;;;5039946;28;20045;-74
2024/01/06 01:36:41;;;;;;;13.30;9.25;;;1.50;99.90;;;;;;5050899;28;20488;-74
2024/01/06 01:39:08;;;;;;;16.05;9.85;;;1.50;99.90;;;;;;5051673;28;20093;-74
2024/01/06 01:41:35;;;;;;;12.77;9.27;;;1.50;99.90;;;;;;5052520;28;20060;-74
2024/01/06 01:44:03;;;;;;;13.48;9.82;;;1.50;99.90;;;;;;5057203;28;20102;-74
2024/01/06 01:46:31;;;;;;;12.00;8.63;;;1.50;99.90;;;;;;5067186;28;20044;-74
2024/01/06 01:48:59;;;;;;;12.73;9.48;;;1.40;99.90;;;;;;5063883;28;20091;-75
2024/01/06 01:51:29;;;;;;;13.63;9.73;;;1.40;99.90;;;;;;5055251;28;20048;-73
2024/01/06 01:53:57;;;;;;;13.48;8.50;;;1.40;99.90;;;;;;5054233;28;20049;-74
2024/01/06 01:56:24;;;;;;;16.13;9.90;;;1.40;99.90;;;;;;5038118;28;20048;-74
2024/01/06 01:58:51;;;;;;;13.27;8.80;;;1.40;99.90;;;;;;5048927;28;20381;-73
2024/01/06 02:01:20;;;;;;;15.77;9.98;;;1.40;99.90;;;;;;5040571;28;20102;-73
2024/01/06 02:03:46;;;;;;;12.25;7.72;;;1.70;99.90;;;;;;5056151;28;20093;-73
2024/01/06 02:06:13;;;;;;;12.02;8.95;;;1.70;99.90;;;;;;5053170;28;20044;-74
2024/01/06 02:08:40;;;;;;;15.20;10.32;;;1.40;99.90;;;;;;5037039;28;20440;-74
2024/01/06 02:11:07;;;;;;;11.20;7.85;;;1.30;99.90;;;;;;5037452;28;20048;-75
2024/01/06 02:13:35;;;;;;;12.13;8.13;;;1.40;99.90;;;;;;5037257;28;20049;-75
2024/01/06 02:16:04;;;;;;;15.52;9.75;;;1.30;99.90;;;;;;5048073;28;20044;-74
2024/01/06 02:18:32;;;;;;;13.50;8.68;;;1.30;99.90;;;;;;5056042;28;20043;-75
2024/01/06 02:21:01;;;;;;;10.68;7.40;;;1.30;99.90;;;;;;5055987;28;20040;-74
2024/01/06 02:23:30;;;;;;;11.68;8.20;;;1.30;99.90;;;;;;5044720;28;20049;-74
2024/01/06 02:25:57;;;;;;;14.77;8.73;;;1.30;99.90;;;;;;5038514;28;20056;-75
2024/01/06 02:28:24;;;;;;;11.20;8.55;;;1.30;99.90;;;;;;5056007;28;20048;-74
2024/01/06 02:30:52;;;;;;;12.13;8.40;;;1.40;99.90;;;;;;5055698;28;20451;-74
2024/01/06 02:33:19;;;;;;;12.02;8.43;;;1.20;99.90;;;;;;5042027;28;20053;-76
2024/01/06 02:35:46;;;;;;;11.85;9.02;;;1.10;99.90;;;;;;5036746;28;20052;-75
2024/01/06 02:38:13;;;;;;;12.93;9.23;;;1.20;99.90;;;;;;5039948;28;20045;-75
2024/01/06 02:40:42;;;;;;;12.98;8.98;;;2.10;99.90;;;;;;5053479;28;20052;-74
2024/01/06 02:43:09;;;;;;;13.25;9.13;;;1.20;99.90;;;;;;5055600;28;20397;-74
2024/01/06 02:45:36;;;;;;;11.80;8.27;;;1.40;99.90;;;;;;5042105;28;20060;-73
2024/01/06 02:48:03;;;;;;;11.00;7.93;;;1.20;99.90;;;;;;5037031;28;20444;-74
2024/01/06 02:50:30;;;;;;;12.73;8.20;;;1.20;99.90;;;;;;5055366;28;20111;-75
2024/01/06 02:52:57;;;;;;;13.70;8.18;;;1.20;99.90;;;;;;5052857;28;20056;-75
2024/01/06 02:55:24;;;;;;;12.38;8.15;;;1.20;99.90;;;;;;5053453;28;20098;-74
2024/01/06 02:57:52;;;;;;;12.27;8.60;;;1.10;99.90;;;;;;5055546;28;20052;-75
2024/01/06 03:00:19;;;;;;;10.40;7.20;;;1.10;99.90;;;;;;5054208;28;20102;-74
2024/01/06 03:02:46;;;;;;;10.95;8.63;;;1.10;99.90;;;;;;5053998;28;20049;-74
2024/01/06 03:05:13;;;;;;;10.48;8.18;;;1.10;99.90;;;;;;5055550;28;20051;-75
2024/01/06 03:07:40;;;;;;;14.35;9.13;;;1.10;99.90;;;;;;5053836;28;20078;-75
2024/01/06 03:10:07;;;;;;;15.45;8.48;;;1.10;99.90;;;;;;5053520;28;20541;-75
2024/01/06 03:12:34;;;;;;;13.95;8.65;;;1.20;99.90;;;;;;5054073;28;20488;-74
2024/01/06 03:15:02;;;;;;;13.52;8.68;;;1.20;99.90;;;;;;5053309;28;20044;-74
2024/01/06 03:17:29;;;;;;;14.13;8.15;;;1.10;99.90;;;;;;5056102;28;20049;-74
2024/01/06 03:19:56;;;;;;;13.07;8.50;;;1.10;99.90;;;;;;5052122;28;20044;-75
2024/01/06 03:22:23;;;;;;;12.73;8.95;;;1.10;99.90;;;;;;5053475;28;20044;-74
2024/01/06 03:24:50;;;;;;;15.70;10.30;;;1.10;99.90;;;;;;5054830;28;20105;-75
2024/01/06 03:27:17;;;;;;;12.70;9.40;;;1.10;99.90;;;;;;5055131;28;20048;-74
2024/01/06 03:29:44;;;;;;;15.75;10.80;;;1.10;99.90;;;;;;5054454;28;20127;-75
2024/01/06 03:32:12;;;;;;;14.75;9.40;;;1.10;99.90;;;;;;5052572;28;20048;-75
2024/01/06 03:34:39;;;;;;;15.38;9.43;;;1.10;99.90;;;;;;5055701;28;20045;-75
2024/01/06 03:37:06;;;;;;;14.55;9.20;;;1.10;99.90;;;;;;5073181;28;20499;-76
2024/01/06 03:39:33;;;;;;;16.42;9.60;;;1.10;99.90;;;;;;5056060;28;20036;-75
2024/01/06 03:42:00;;;;;;;14.45;10.50;;;1.10;99.90;;;;;;5063014;28;20057;-75
2024/01/06 03:44:30;;;;;;;15.55;11.50;;;1.10;99.90;;;;;;5066203;28;20106;-75
2024/01/06 03:46:57;;;;;;;16.50;10.18;;;1.10;99.90;;;;;;5062159;28;20488;-74
2024/01/06 03:49:26;;;;;;;16.40;11.90;;;1.10;99.90;;;;;;5054984;28;20068;-74
2024/01/06 03:51:53;;;;;;;14.80;10.23;;;1.10;99.90;;;;;;5052084;28;20053;-74
2024/01/06 03:54:20;;;;;;;14.70;10.30;;;1.10;99.90;;;;;;5053481;28;20053;-75
2024/01/06 03:56:47;;;;;;;15.52;10.52;;;1.10;99.90;;;;;;5072253;28;20090;-75
2024/01/06 03:59:14;;;;;;;19.45;11.07;;;1.10;99.90;;;;;;5052712;28;20086;-75
2024/01/06 04:01:41;;;;;;;23.42;10.75;;;1.10;99.90;;;;;;5053056;28;20045;-75
2024/01/06 04:04:08;;;;;;;16.90;9.60;;;1.10;99.90;;;;;;5052370;28;20048;-75
2024/01/06 04:06:35;;;;;;;13.48;9.45;;;1.00;99.90;;;;;;5052391;28;20059;-75
2024/01/06 04:09:02;;;;;;;13.32;9.05;;;1.10;99.90;;;;;;5051446;28;20053;-75
2024/01/06 04:11:29;;;;;;;13.45;8.90;;;1.10;99.90;;;;;;5052929;28;20048;-75
2024/01/06 04:13:56;;;;;;;13.50;9.25;;;1.00;99.90;;;;;;5051586;28;20547;-75
2024/01/06 04:16:23;;;;;;;16.10;9.38;;;1.10;99.90;;;;;;5052536;28;20044;-75
2024/01/06 04:18:50;;;;;;;13.60;9.75;;;1.10;99.90;;;;;;5053181;28;20099;-75
2024/01/06 04:21:17;;;;;;;15.30;9.88;;;1.00;99.90;;;;;;5051417;28;20496;-75
2024/01/06 04:23:45;;;;;;;14.15;9.38;;;1.10;99.90;;;;;;5053058;28;20402;-75
2024/01/06 04:26:12;;;;;;;17.60;10.95;;;1.10;99.90;;;;;;5051150;28;20053;-74
2024/01/06 04:28:38;;;;;;;13.00;9.30;;;1.10;99.90;;;;;;5051858;28;20052;-75
2024/01/06 04:31:05;;;;;;;15.27;9.65;;;1.10;99.90;;;;;;5053128;28;20048;-75
2024/01/06 04:33:33;;;;;;;14.80;9.98;;;1.10;99.90;;;;;;5051863;28;20094;-75
2024/01/06 04:36:01;;;;;;;16.30;9.90;;;1.30;99.90;;;;;;5052389;28;20048;-74
2024/01/06 04:38:28;;;;;;;16.00;9.48;;;1.20;99.90;;;;;;5050854;28;20136;-74
2024/01/06 04:40:56;;;;;;;15.98;11.23;;;1.20;99.90;;;;;;5051937;28;20082;-74
2024/01/06 04:43:23;;;;;;;14.68;10.38;;;1.20;99.90;;;;;;5048386;28;20045;-74
2024/01/06 04:45:50;;;;;;;14.13;9.10;;;1.20;99.90;;;;;;5053518;28;20044;-74
2024/01/06 04:48:17;;;;;;;12.80;9.00;;;1.40;99.90;;;;;;5054212;28;20091;-74
2024/01/06 04:50:45;;;;;;;15.48;8.90;;;1.20;99.90;;;;;;5051030;28;20471;-75
2024/01/06 04:53:12;;;;;;;14.13;10.10;;;1.20;99.90;;;;;;5052029;28;20049;-75
2024/01/06 04:55:39;;;;;;;15.00;8.93;;;1.20;99.90;;;;;;5050926;28;20451;-75
2024/01/06 04:58:07;;;;;;;19.33;9.82;;;1.50;99.90;;;;;;5051517;28;20392;-74
2024/01/06 05:00:36;;;;;;;14.10;9.77;;;1.40;99.90;;;;;;5052357;28;20053;-75
2024/01/06 05:03:03;;;;;;;15.65;9.68;;;1.30;99.90;;;;;;5053679;28;20059;-75
2024/01/06 05:05:30;;;;;;;14.70;8.98;;;1.20;99.90;;;;;;5039960;28;20126;-74
2024/01/06 05:07:58;;;;;;;14.55;9.48;;;1.20;99.90;;;;;;5050874;28;20049;-74
2024/01/06 05:10:25;;;;;;;15.38;10.48;;;1.20;99.90;;;;;;5051731;28;20390;-75
2024/01/06 05:12:51;;;;;;;15.32;10.15;;;1.20;99.90;;;;;;5051306;28;20454;-75
2024/01/06 05:15:20;;;;;;;14.02;9.25;;;1.20;99.90;;;;;;5051423;28;20446;-73
2024/01/06 05:17:47;;;;;;;13.75;8.88;;;1.20;99.90;;;;;;5052190;28;20447;-74
2024/01/06 05:20:14;;;;;;;12.77;9.05;;;1.20;99.90;;;;;;5056591;28;20443;-74
2024/01/06 05:22:41;;;;;;;12.25;8.68;;;1.20;99.90;;;;;;5055065;28;20040;-75
2024/01/06 05:25:09;;;;;;;12.25;8.85;;;1.20;99.90;;;;;;5055980;28;20117;-74
2024/01/06 05:27:36;;;;;;;15.02;9.02;;;1.20;99.90;;;;;;5055031;28;20091;-74
2024/01/06 05:30:03;;;;;;;13.10;9.02;;;1.20;99.90;;;;;;5056449;28;20079;-74
2024/01/06 05:32:31;;;;;;;14.95;9.30;;;1.20;99.90;;;;;;5056997;28;20049;-74
2024/01/06 05:34:58;;;;;;;18.67;10.73;;;1.20;99.90;;;;;;5057864;28;20106;-74
2024/01/06 05:37:25;;;;;;;13.57;9.50;;;1.40;99.90;;;;;;5055522;28;20106;-75
2024/01/06 05:39:51;;;;;;;13.88;8.38;;;1.30;99.90;;;;;;5054485;28;20443;-75
2024/01/06 05:42:18;;;;;;;13.95;8.50;;;1.30;99.90;;;;;;5056314;28;20446;-75
2024/01/06 05:44:45;;;;;;;12.93;9.25;;;1.30;99.90;;;;;;5054800;28;20451;-76
2024/01/06 05:47:12;;;;;;;13.52;9.35;;;1.30;99.90;;;;;;5055077;28;20561;-75
2024/01/06 05:49:44;;;;;;;12.30;8.77;;;1.30;99.90;;;;;;5053320;28;20053;-74
2024/01/06 05:52:11;;;;;;;12.43;8.77;;;1.30;99.90;;;;;;5053881;28;20092;-75
2024/01/06 05:54:42;;;;;;;12.77;9.10;;;1.30;99.90;;;;;;5053351;28;20099;-74
2024/01/06 05:57:08;;;;;;;13.18;9.35;;;1.20;99.90;;;;;;5034022;28;20470;-74
2024/01/06 05:59:36;;;;;;;13.57;9.13;;;1.30;99.90;;;;;;5053368;28;20041;-75
2024/01/06 06:02:03;;;;;;;10.15;8.15;;;1.30;99.90;;;;;;5039820;28;20559;-75
2024/01/06 06:04:30;;;;;;;11.77;7.85;;;1.30;99.90;;;;;;5054263;28;20049;-75
2024/01/06 06:06:58;;;;;;;10.32;8.18;;;1.40;99.90;;;;;;5048198;28;20064;-74
2024/01/06 06:09:25;;;;;;;11.40;7.68;;;1.40;99.90;;;;;;5034228;28;20049;-74
2024/01/06 06:11:52;;;;;;;11.50;8.23;;;1.40;99.90;;;;;;5050551;28;20083;-75
2024/01/06 06:14:19;;;;;;;11.00;8.25;;;1.30;99.90;;;;;;5044166;28;20045;-75
2024/01/06 06:16:47;;;;;;;11.38;8.50;;;1.40;99.90;;;;;;5046575;28;20059;-74
2024/01/06 06:19:14;;;;;;;12.43;8.88;;;1.40;99.90;;;;;;5036379;28;20049;-74
2024/01/06 06:21:41;;;;;;;13.95;9.07;;;1.40;99.90;;;;;;5038039;28;20049;-75
2024/01/06 06:24:09;;;;;;;12.23;8.95;;;1.60;99.90;;;;;;5035297;28;20053;-75
2024/01/06 06:26:36;;;;;;;13.20;8.75;;;1.40;99.90;;;;;;5052459;28;20044;-75
2024/01/06 06:29:03;;;;;;;12.13;8.45;;;1.40;99.90;;;;;;5036731;28;20041;-75
2024/01/06 06:31:30;;;;;;;12.95;8.75;;;1.30;99.90;;;;;;5043369;28;20053;-75
2024/01/06 06:33:57;;;;;;;12.32;8.82;;;1.40;99.90;;;;;;5036718;28;20057;-75
2024/01/06 06:36:24;;;;;;;14.30;9.43;;;1.40;99.90;;;;;;5042939;28;20042;-74
2024/01/06 06:38:51;;;;;;;13.85;9.27;;;1.40;99.90;;;;;;5038200;28;20455;-75
2024/01/06 06:41:19;;;;;;;15.32;10.90;;;1.50;99.90;;;;;;5043560;28;20053;-74
2024/01/06 06:43:46;;;;;;;13.30;10.10;;;1.40;99.90;;;;;;5033924;28;20405;-74
2024/01/06 06:46:13;;;;;;;12.43;9.75;;;1.40;99.90;;;;;;5038863;28;20159;-73
2024/01/06 06:48:40;;;;;;;13.07;9.05;;;1.40;99.90;;;;;;5035904;28;20052;-75
2024/01/06 06:51:07;;;;;;;15.45;10.10;;;1.40;99.90;;;;;;5030215;28;20528;-72
2024/01/06 06:53:34;;;;;;;19.10;11.45;;;2.30;99.90;;;;;;5029668;28;20053;-73
2024/01/06 06:56:01;;;;;;;17.58;11.45;;;1.40;99.90;;;;;;5039837;28;20100;-74
2024/01/06 06:58:29;;;;;;;18.60;11.82;;;1.40;99.90;;;;;;5040028;28;20057;-74
2024/01/06 07:00:56;;;;;;;18.50;10.45;;;1.80;99.90;;;;;;5030800;28;20103;-75
2024/01/06 07:03:23;;;;;;;15.15;9.88;;;1.40;99.90;;;;;;5032487;28;20060;-74
2024/01/06 07:05:49;;;;;;;16.08;10.85;;;1.40;99.90;;;;;;5032303;28;20117;-74
2024/01/06 07:08:16;;;;;;;17.02;11.45;;;1.60;99.90;;;;;;5044271;28;20058;-73
2024/01/06 07:10:43;;;;;;;15.43;11.55;;;1.40;99.90;;;;;;5033742;28;20384;-73
2024/01/06 07:13:10;;;;;;;18.90;12.27;;;1.40;99.90;;;;;;5032853;28;20100;-74
2024/01/06 07:15:39;;;;;;;17.23;12.02;;;1.40;99.90;;;;;;5032720;28;20103;-73
2024/01/06 07:18:08;;;;;;;20.20;13.02;;;1.40;99.90;;;;;;5031658;28;20062;-74
2024/01/06 07:20:35;;;;;;;17.95;11.00;;;1.60;99.90;;;;;;5032348;28;20092;-74
2024/01/06 07:23:03;;;;;;;19.17;12.23;;;1.40;99.90;;;;;;5041914;28;20041;-75
2024/01/06 07:25:30;;;;;;;19.40;12.93;;;1.40;99.90;;;;;;5032787;28;20056;-73
2024/01/06 07:27:57;;;;;;;16.30;11.15;;;1.40;99.90;;;;;;5032340;28;20111;-73
2024/01/06 07:30:24;;;;;;;17.65;11.90;;;1.40;99.90;;;;;;5032338;28;20092;-74
2024/01/06 07:32:52;;;;;;;16.98;11.38;;;1.40;99.90;;;;;;5030422;28;20041;-74
2024/01/06 07:35:19;;;;;;;17.92;11.65;;;1.40;99.90;;;;;;5038990;28;20049;-73
2024/01/06 07:37:46;;;;;;;14.95;11.57;;;1.90;99.90;;;;;;5030218;28;20076;-73
2024/01/06 07:40:16;;;;;;;19.42;10.98;;;1.90;99.90;;;;;;5030957;28;20095;-74
2024/01/06 07:42:43;;;;;;;20.67;12.32;;;1.40;99.90;;;;;;5031845;28;20049;-73
2024/01/06 07:45:10;;;;;;;17.65;12.32;;;1.50;99.90;;;;;;5032249;28;20103;-73
2024/01/06 07:47:37;;;;;;;19.30;12.13;;;1.40;99.90;;;;;;5035190;28;20091;-74
2024/01/06 07:50:08;;;;;;;23.48;12.85;;;1.50;99.90;;;;;;5037700;28;20073;-73
2024/01/06 07:52:35;;;;;;;19.95;13.05;;;1.40;99.90;;;;;;5048952;28;20080;-74
2024/01/06 07:55:03;;;;;;;17.15;12.32;;;1.40;99.90;;;;;;5025173;28;20080;-75
2024/01/06 07:57:30;;;;;;;18.70;12.68;;;1.40;99.90;;;;;;5025358;28;20127;-75
2024/01/06 07:59:57;;;;;;;17.67;11.98;;;1.40;99.90;;;;;;5022936;28;20123;-74
2024/01/06 08:02:23;;;;;;;16.88;11.90;;;1.40;99.90;;;;;;5029321;28;20049;-75
2024/01/06 08:04:50;;;;;;;19.60;12.65;;;1.40;99.90;;;;;;5018768;28;20103;-75
2024/01/06 08:07:18;;;;;;;17.92;12.55;;;1.40;99.90;;;;;;5016456;28;20425;-75
2024/01/06 08:09:45;;;;;;;19.75;13.38;;;1.50;99.90;;;;;;5030036;28;20048;-74
2024/01/06 08:12:13;;;;;;;19.75;12.77;;;1.40;99.90;;;;;;5034094;28;20052;-74
2024/01/06 08:14:40;;;;;;;19.00;13.65;;;1.40;99.90;;;;;;5021828;28;20049;-74
2024/01/06 08:17:06;;;;;;;19.08;13.27;;;1.50;99.90;;;;;;5033766;28;20104;-74
2024/01/06 08:19:35;;;;;;;20.48;12.75;;;1.70;99.90;;;;;;5018570;28;20057;-74
2024/01/06 08:22:02;;;;;;;16.88;11.57;;;1.50;99.90;;;;;;5024846;28;20175;-74
2024/01/06 08:24:30;;;;;;;18.33;11.23;;;1.50;99.90;;;;;;5030713;28;20110;-74
2024/01/06 08:26:57;;;;;;;20.48;12.13;;;1.50;99.90;;;;;;5030379;28;20053;-74
2024/01/06 08:29:24;;;;;;;17.88;12.25;;;1.50;99.90;;;;;;5023063;28;20048;-73
2024/01/06 08:31:52;;;;;;;19.55;12.32;;;1.50;99.90;;;;;;5028513;28;20088;-74
2024/01/06 08:34:18;;;;;;;15.27;11.38;;;1.60;99.90;;;;;;5023198;28;20396;-74
2024/01/06 08:36:46;;;;;;;15.13;11.02;;;1.80;99.90;;;;;;5023340;28;20053;-75
2024/01/06 08:39:13;;;;;;;16.25;11.10;;;1.60;99.90;;;;;;5021254;28;20459;-74
2024/01/06 08:41:41;;;;;;;16.45;11.00;;;1.60;99.90;;;;;;5018305;28;20048;-74
2024/01/06 08:44:08;;;;;;;17.50;10.77;;;1.60;99.90;;;;;;5018942;28;20049;-74
2024/01/06 08:46:35;;;;;;;15.60;11.50;;;1.60;99.90;;;;;;5032289;28;20041;-74
2024/01/06 08:49:02;;;;;;;16.88;11.82;;;1.60;99.90;;;;;;5036454;28;20410;-74
2024/01/06 08:51:30;;;;;;;17.05;11.13;;;1.70;99.90;;;;;;5052731;28;20440;-74
2024/01/06 08:53:57;;;;;;;17.30;11.55;;;1.70;99.90;;;;;;5050626;28;20045;-75
2024/01/06 08:56:24;;;;;;;15.70;11.23;;;1.70;99.90;;;;;;5050972;28;20053;-73
2024/01/06 08:58:52;;;;;;;17.65;12.52;;;1.70;99.90;;;;;;5052249;28;20053;-74
2024/01/06 09:01:20;;;;;;;19.23;11.35;;;1.70;99.90;;;;;;5051406;28;20535;-74
2024/01/06 09:03:47;;;;;;;16.33;11.07;;;1.70;99.90;;;;;;5051313;28;20480;-75
2024/01/06 09:06:14;;;;;;;14.13;10.38;;;1.70;99.90;;;;;;5050809;28;20048;-75
2024/01/06 09:08:41;;;;;;;14.52;11.43;;;1.60;99.90;;;;;;5049727;28;20076;-74
2024/01/06 09:11:08;;;;;;;16.17;10.75;;;1.80;99.90;;;;;;5049049;28;20079;-74
2024/01/06 09:13:35;;;;;;;19.00;10.80;;;1.70;99.90;;;;;;5050311;28;20049;-74
2024/01/06 09:16:03;;;;;;;18.05;10.80;;;1.70;99.90;;;;;;5051502;28;20462;-74
2024/01/06 09:18:31;;;;;;;14.45;10.60;;;1.70;99.90;;;;;;5050897;28;20105;-74
2024/01/06 09:20:58;;;;;;;16.55;10.60;;;1.80;99.90;;;;;;5050113;28;20048;-74
2024/01/06 09:23:25;;;;;;;17.33;12.00;;;1.70;99.90;;;;;;5052371;28;20048;-74
2024/01/06 09:25:52;;;;;;;14.88;11.02;;;1.70;99.90;;;;;;5045562;28;20049;-74
2024/01/06 09:28:20;;;;;;;17.08;10.43;;;1.80;99.90;;;;;;5048855;28;20063;-74
2024/01/06 09:30:47;;;;;;;15.65;10.23;;;1.80;99.90;;;;;;5049033;28;20043;-74
2024/01/06 09:33:17;;;;;;;13.88;9.68;;;1.80;99.90;;;;;;5048402;28;20045;-74
2024/01/06 09:35:44;;;;;;;13.95;10.50;;;1.80;99.90;;;;;;5049153;28;20519;-75
2024/01/06 09:38:11;;;;;;;14.38;10.57;;;1.80;99.90;;;;;;5049751;28;20091;-74
2024/01/06 09:40:44;;;;;;;18.63;10.55;;;2.70;99.90;;;;;;5049680;28;20037;-74
2024/01/06 09:43:11;;;;;;;17.45;10.55;;;2.10;99.90;;;;;;5050518;28;20139;-74
2024/01/06 09:45:39;;;;;;;14.18;9.93;;;2.10;99.90;;;;;;5051366;28;20083;-74
2024/01/06 09:48:10;;;;;;;16.02;11.18;;;1.90;99.90;;;;;;5053365;28;20507;-73
2024/01/06 09:50:41;;;;;;;13.48;9.80;;;1.90;99.90;;;;;;5050232;28;20046;-74
2024/01/06 09:53:10;;;;;;;16.63;10.90;;;1.90;99.90;;;;;;5050197;28;20053;-73
2024/01/06 09:55:38;;;;;;;13.27;9.93;;;2.00;99.90;;;;;;5051679;28;20049;-74
2024/01/06 09:58:06;;;;;;;18.88;10.30;;;1.90;99.90;;;;;;5052199;28;20079;-75
2024/01/06 10:00:33;;;;;;;15.50;10.30;;;2.00;99.90;;;;;;5049945;28;20215;-74
2024/01/06 10:03:00;;;;;;;18.13;11.00;;;2.00;99.90;;;;;;5051817;28;20052;-74
2024/01/06 10:05:27;;;;;;;16.50;10.95;;;1.90;99.90;;;;;;5053351;28;20404;-74
2024/01/06 10:07:55;;;;;;;15.25;9.77;;;2.00;99.90;;;;;;5056434;28;20053;-73
2024/01/06 10:10:23;;;;;;;14.63;11.05;;;2.00;99.90;;;;;;5055564;28;20078;-74
2024/01/06 10:12:55;;;;;;;14.32;10.80;;;2.10;99.90;;;;;;5056357;28;20053;-73
2024/01/06 10:15:22;;;;;;;16.85;10.82;;;2.10;99.90;;;;;;5054183;28;20048;-73
2024/01/06 10:17:49;;;;;;;18.27;11.40;;;2.00;99.90;;;;;;5055475;28;20443;-73
2024/01/06 10:20:17;;;;;;;15.38;10.80;;;2.10;99.90;;;;;;5053611;28;20041;-73
2024/01/06 10:22:44;;;;;;;14.15;9.90;;;2.10;99.90;;;;;;5055053;28;20505;-73
2024/01/06 10:25:14;;;;;;;18.02;11.93;;;2.10;99.90;;;;;;5056004;28;20461;-74
2024/01/06 10:27:42;;;;;;;14.07;9.80;;;2.20;99.90;;;;;;5053672;28;20518;-74
2024/01/06 10:30:10;;;;;;;13.77;10.27;;;2.30;99.90;;;;;;5053348;28;20041;-74
2024/01/06 10:32:37;;;;;;;13.88;10.30;;;2.20;99.90;;;;;;5053336;28;20095;-73
2024/01/06 10:35:06;;;;;;;15.80;10.70;;;2.20;99.90;;;;;;5054560;28;20400;-73
2024/01/06 10:37:33;;;;;;;13.05;9.45;;;2.20;99.90;;;;;;5055037;28;20044;-73
2024/01/06 10:40:08;;;;;;;14.00;9.93;;;2.20;99.90;;;;;;5053995;28;20056;-73
2024/01/06 10:42:39;;;;;;;15.07;10.23;;;2.20;99.90;;;;;;5053177;28;20040;-73
2024/01/06 10:45:09;;;;;;;14.60;10.55;;;2.20;99.90;;;;;;5052929;28;20075;-74
2024/01/06 10:47:36;;;;;;;14.50;10.23;;;2.20;99.90;;;;;;5054504;28;20080;-73
2024/01/06 10:50:03;;;;;;;15.13;9.90;;;2.30;99.90;;;;;;5054379;28;20294;-73
2024/01/06 10:52:31;;;;;;;13.48;9.45;;;2.20;99.90;;;;;;5053561;28;20522;-74
2024/01/06 10:54:58;;;;;;;13.18;9.52;;;2.20;99.90;;;;;;5055300;28;20045;-73
2024/01/06 10:57:25;;;;;;;12.10;9.05;;;2.30;99.90;;;;;;5052492;28;20045;-74
2024/01/06 10:59:54;;;;;;;13.48;9.68;;;2.30;99.90;;;;;;5056383;28;20040;-74
2024/01/06 11:02:20;;;;;;;15.07;10.40;;;2.50;99.90;;;;;;5051600;28;20182;-74
2024/01/06 11:04:50;;;;;;;12.38;8.65;;;2.40;99.90;;;;;;5053927;28;20045;-74
2024/01/06 11:07:19;;;;;;;15.18;9.68;;;2.40;99.90;;;;;;5054129;28;20360;-74
2024/01/06 11:09:51;;;;;;;12.73;9.30;;;2.40;99.90;;;;;;5052564;28;20072;-74
2024/01/06 11:12:19;;;;;;;12.32;8.82;;;2.40;99.90;;;;;;5051424;28;20231;-74
2024/01/06 11:14:46;;;;;;;12.30;9.27;;;2.50;99.90;;;;;;5054907;28;20504;-74
2024/01/06 11:17:50;;;;;;;13.50;9.27;;;2.50;99.90;;;;;;5051331;28;20056;-75
2024/01/06 11:20:17;;;;;;;10.55;8.13;;;2.50;99.90;;;;;;5048991;28;20079;-74
2024/01/06 11:22:45;;;;;;;11.35;8.35;;;2.60;99.90;;;;;;5054858;28;20044;-74
2024/01/06 11:25:16;;;;;;;9.90;7.53;;;2.50;99.90;;;;;;5051159;28;20106;-74
2024/01/06 11:27:45;;;;;;;12.18;8.43;;;2.40;99.90;;;;;;5054885;28;20048;-74
2024/01/06 11:30:21;;;;;;;10.80;8.07;;;2.40;99.90;;;;;;5051612;28;20083;-73
2024/01/06 11:32:49;;;;;;;12.38;8.48;;;2.40;99.90;;;;;;5041975;28;20048;-73
2024/01/06 11:35:17;;;;;;;11.85;7.80;;;2.40;99.90;;;;;;5044788;28;20041;-73
2024/01/06 11:38:01;;;;;;;11.35;7.65;;;2.50;99.90;;;;;;5051232;28;20827;-73
2024/01/06 11:40:35;;;;;;;10.60;7.10;;;2.50;99.90;;;;;;5054156;28;20353;-74
2024/01/06 11:43:05;;;;;;;10.48;7.57;;;2.70;99.90;;;;;;5051075;28;20101;-73
2024/01/06 11:45:33;;;;;;;10.90;7.28;;;2.60;99.90;;;;;;5052482;28;20060;-73
2024/01/06 11:48:03;;;;;;;8.55;6.63;;;2.70;99.90;;;;;;5041948;28;20075;-73
2024/01/06 11:50:30;;;;;;;12.00;6.90;;;2.50;99.90;;;;;;5049681;28;20500;-73
2024/01/06 11:52:57;;;;;;;8.55;6.18;;;2.50;99.90;;;;;;5045625;28;20060;-74
2024/01/06 11:55:27;;;;;;;9.88;7.07;;;2.50;99.90;;;;;;5037553;28;20056;-74
2024/01/06 11:57:54;;;;;;;9.23;6.70;;;2.30;99.90;;;;;;5046753;28;20063;-74
2024/01/06 12:00:21;;;;;;;10.60;7.15;;;2.20;99.90;;;;;;5044128;28;20045;-74
2024/01/06 12:02:48;;;;;;;10.30;7.60;;;2.30;99.90;;;;;;5045856;28;20078;-75
2024/01/06 12:05:17;;;;;;;9.80;6.50;;;2.20;99.90;;;;;;5046313;28;20133;-73
2024/01/06 12:07:53;;;;;;;10.23;7.47;;;2.30;99.90;;;;;;5032206;28;20115;-74
2024/01/06 12:10:21;;;;;;;11.00;7.72;;;2.20;99.90;;;;;;5038821;28;20416;-73
2024/01/06 12:12:56;;;;;;;11.13;7.95;;;2.20;99.90;;;;;;5051066;28;20094;-74
2024/01/06 12:15:23;;;;;;;9.70;6.63;;;2.30;99.90;;;;;;5053005;28;20507;-72
2024/01/06 12:17:50;;;;;;;9.02;6.22;;;2.10;99.90;;;;;;5051636;28;20052;-73
2024/01/06 12:20:18;;;;;;;8.77;6.55;;;3.50;99.90;;;;;;5053072;28;20545;-73
2024/01/06 12:22:45;;;;;;;9.25;6.75;;;3.80;99.90;;;;;;5056460;28;20037;-75
2024/01/06 12:25:15;;;;;;;9.88;7.00;;;3.20;99.90;;;;;;5052299;28;20056;-73
2024/01/06 12:27:43;;;;;;;8.98;6.88;;;2.80;99.90;;;;;;5051178;28;20060;-73
2024/01/06 12:30:16;;;;;;;8.85;6.53;;;2.50;99.90;;;;;;5053782;28;20048;-73
2024/01/06 12:32:43;;;;;;;9.70;6.72;;;2.30;99.90;;;;;;5060208;28;20080;-73
2024/01/06 12:35:11;;;;;;;11.07;7.25;;;2.20;99.90;;;;;;5050924;28;20048;-73
2024/01/06 12:37:40;;;;;;;9.88;7.47;;;2.20;99.90;;;;;;5054311;28;20041;-72
2024/01/06 12:40:10;;;;;;;10.43;6.93;;;2.10;99.90;;;;;;5051965;28;20053;-73
2024/01/06 12:42:37;;;;;;;8.50;6.40;;;2.00;99.90;;;;;;5050060;28;20044;-73
2024/01/06 12:45:05;;;;;;;10.27;6.78;;;1.90;99.90;;;;;;5049356;28;20131;-73